Surface/Atmospheric History
12/06/2017 18:46  to  12/7/2017 18:46
Change End Date:
To complete the export process:
1) Select all of the data below
2) Copy the data to the clipboard
3) Open a word processor such as Notepad
4) Paste the data into the word processor
5) Save the file

Date/Time (MST), SfStat, SfTemp, PvtTemp, SubTemp, AirTemp, RH, Dewpoint, AvgWindSpeed, GustWindSpeed, WindDirection, PrecipType, PrecipIntenisity
12/07/2017 18:44, Dry , 31.5 , , , 34, 30, 7, 12, 15, W, None, None
12/07/2017 18:35, Dry , 32 , , , 36, 29, 7, 12, 16, W, None, None
12/07/2017 18:34, Dry , 32 , , , 36, 29, 7, 10, 16, W, None, None
12/07/2017 18:23, Dry , 32.5 , , , 37, 28, 7, 15, 17, W, None, None
12/07/2017 18:20, Dry , 32.7 , , , 38, 28, 7, 16, 17, W, None, None
12/07/2017 18:13, Dry , 33.1 , , , 38, 27, 8, 16, 18, W, None, None
12/07/2017 18:05, Dry , 33.3 , , , 39, 27, 8, 17, 19, W, None, None
12/07/2017 18:03, Dry , 33.3 , , , 39, 27, 8, 17, 19, W, None, None
12/07/2017 17:53, Dry , 33.1 , , , 37, 27, 7, 15, 17, W, None, None
12/07/2017 17:50, Dry , 33.1 , , , 37, 27, 7, 15, 16, W, None, None
12/07/2017 17:43, Dry , 33.4 , , , 38, 26, 7, 13, 17, W, None, None
12/07/2017 17:35, Dry , 33.8 , , , 37, 26, 6, 16, 18, W, None, None
12/07/2017 17:33, Dry , 34 , , , 37, 26, 6, 15, 18, W, None, None
12/07/2017 17:23, Dry , 34.3 , , , 37, 25, 5, 16, 17, W, None, None
12/07/2017 17:20, Dry , 34.5 , , , 38, 25, 5, 16, 17, W, None, None
12/07/2017 17:13, Dry , 35.4 , , , 42, 23, 8, 14, 19, W, None, None
12/07/2017 17:05, Dry , 36 , , , 44, 23, 9, 17, 21, NW, None, None
12/07/2017 17:03, Dry , 36.1 , , , 45, 23, 9, 17, 21, NW, None, None
12/07/2017 16:53, Dry , 35.8 , , , 44, 23, 9, 17, 21, NW, None, None
12/07/2017 16:50, Dry , 36 , , , 44, 23, 9, 17, 21, NW, None, None
12/07/2017 16:43, Dry , 36 , , , 43, 24, 9, 14, 18, NW, None, None
12/07/2017 16:35, Dry , 36.3 , , , 42, 24, 8, 15, 17, W, None, None
12/07/2017 16:33, Dry , 36.7 , , , 42, 24, 8, 14, 16, W, None, None
12/07/2017 16:23, Dry , 37.2 , , , 43, 23, 9, 13, 19, NW, None, None
12/07/2017 16:20, Dry , 37.6 , , , 44, 23, 9, 14, 19, W, None, None
12/07/2017 16:13, Dry , 37.9 , , , 43, 23, 9, 15, 17, NW, None, None
12/07/2017 16:05, Dry , 38.8 , , , 44, 23, 9, 13, 16, NW, None, None
12/07/2017 16:03, Dry , 38.8 , , , 44, 23, 10, 14, 16, W, None, None
12/07/2017 15:53, Dry , 39.6 , , , 45, 23, 10, 13, 16, NW, None, None
12/07/2017 15:50, Dry , 39.7 , , , 45, 23, 10, 12, 15, W, None, None
12/07/2017 15:43, Dry , 40.1 , , , 45, 23, 10, 12, 14, NW, None, None
12/07/2017 15:35, Dry , 41 , , , 47, 22, 11, 11, 14, W, None, None
12/07/2017 15:32, Dry , 41.5 , , , 47, 22, 11, 10, 17, NW, None, None
12/07/2017 15:22, Dry , 41.9 , , , 47, 22, 11, 12, 15, NW, None, None
12/07/2017 15:20, Dry , 42.4 , , , 48, 22, 12, 8, 13, NW, None, None
12/07/2017 15:12, Dry , 43.2 , , , 48, 22, 12, 10, 18, NW, None, None
12/07/2017 15:05, Dry , 43.7 , , , 49, 22, 12, 9, 13, NW, None, None
12/07/2017 15:02, Dry , 44.1 , , , 49, 22, 12, 11, 15, NW, None, None
12/07/2017 14:52, Dry , 43.5 , , , 48, 22, 12, 12, 16, NW, None, None
12/07/2017 14:50, Dry , 43.7 , , , 49, 22, 12, 12, 16, NW, None, None
12/07/2017 14:42, Dry , 44.6 , , , 49, 22, 12, 9, 15, NW, None, None
12/07/2017 14:35, Dry , 45.7 , , , 50, 22, 13, 12, 14, NW, None, None
12/07/2017 14:32, Dry , 46.2 , , , 50, 22, 13, 10, 13, W, None, None
12/07/2017 14:22, Dry , 45.7 , , , 49, 22, 13, 11, 16, NW, None, None
12/07/2017 14:20, Dry , 46.2 , , , 50, 22, 13, 11, 16, NW, None, None
12/07/2017 14:12, Dry , 47.5 , , , 50, 22, 14, 12, 19, NW, None, None
12/07/2017 14:05, Dry , 48 , , , 50, 23, 14, 16, 19, W, None, None
12/07/2017 14:02, Dry , 47.7 , , , 50, 23, 14, 12, 18, NW, None, None
12/07/2017 13:52, Dry , 48.6 , , , 51, 22, 14, 16, 22, W, None, None
12/07/2017 13:50, Dry , 48.7 , , , 51, 23, 15, 15, 20, NW, None, None
12/07/2017 13:42, Dry , 48.7 , , , 51, 23, 15, 14, 19, W, None, None
12/07/2017 13:35, Dry , 48.4 , , , 50, 24, 15, 15, 19, NW, None, None
12/07/2017 13:32, Dry , 48.7 , , , 50, 24, 15, 14, 18, W, None, None
12/07/2017 13:22, Dry , 48.6 , , , 49, 25, 16, 15, 20, W, None, None
12/07/2017 13:20, Dry , 48.6 , , , 49, 25, 15, 16, 20, W, None, None
12/07/2017 13:12, Dry , 48.4 , , , 49, 26, 16, 16, 20, W, None, None
12/07/2017 13:05, Dry , 48.2 , , , 49, 26, 17, 14, 19, W, None, None
12/07/2017 13:02, Dry , 48.2 , , , 49, 26, 16, 14, 19, W, None, None
12/07/2017 12:52, Dry , 48.2 , , , 48, 27, 16, 14, 19, W, None, None
12/07/2017 12:50, Dry , 48 , , , 47, 27, 16, 17, 19, W, None, None
12/07/2017 12:41, Dry , 47.7 , , , 47, 27, 16, 17, 18, W, None, None
12/07/2017 12:35, Dry , 47.1 , , , 48, 27, 17, 15, 19, W, None, None
12/07/2017 12:31, Dry , 46.6 , , , 48, 28, 17, 16, 20, W, None, None
12/07/2017 12:21, Dry , 47.3 , , , 48, 29, 17, 15, 19, W, None, None
12/07/2017 12:20, Dry , 47.3 , , , 47, 29, 17, 14, 20, W, None, None
12/07/2017 12:11, Dry , 46.8 , , , 46, 31, 17, 17, 21, W, None, None
12/07/2017 12:05, Dry , 46.4 , , , 45, 32, 17, 18, 21, W, None, None
12/07/2017 12:01, Dry , 46.2 , , , 46, 32, 17, 16, 21, W, None, None
12/07/2017 11:51, Dry , 45.1 , , , 46, 32, 18, 18, 21, W, None, None
12/07/2017 11:50, Dry , 45.1 , , , 46, 32, 18, 19, 21, W, None, None
12/07/2017 11:41, Dry , 44.4 , , , 44, 34, 18, 17, 21, W, None, None
12/07/2017 11:35, Dry , 43.9 , , , 43, 35, 18, 18, 21, W, None, None
12/07/2017 11:31, Dry , 43.5 , , , 44, 35, 18, 17, 20, W, None, None
12/07/2017 11:21, Dry , 42.4 , , , 43, 35, 17, 17, 19, W, None, None
12/07/2017 11:20, Dry , 42.4 , , , 43, 35, 17, 16, 19, W, None, None
12/07/2017 11:11, Dry , 39.2 , , , 42, 35, 17, 10, 12, W, None, None
12/07/2017 11:05, Dry , 39.2 , , , 42, 35, 17, 9, 12, W, None, None
12/07/2017 11:01, Dry , 39.2 , , , 42, 35, 17, 11, 13, W, None, None
12/07/2017 10:51, Dry , 40.1 , , , 43, 35, 17, 9, 14, W, None, None
12/07/2017 10:50, Dry , 40.1 , , , 43, 35, 17, 9, 15, W, None, None
12/07/2017 10:41, Dry , 39 , , , 43, 34, 17, 12, 17, W, None, None
12/07/2017 10:35, Dry , 38.3 , , , 43, 34, 17, 12, 17, W, None, None
12/07/2017 10:31, Dry , 38.5 , , , 43, 35, 18, 13, 16, W, None, None
12/07/2017 10:21, Trace Moisture , 36.7 , , , 41, 37, 17, 13, 17, W, None, None
12/07/2017 10:20, Trace Moisture , 36.7 , , , 41, 37, 17, 14, 17, W, None, None
12/07/2017 10:11, Trace Moisture , 35.6 , , , 40, 39, 17, 14, 19, W, None, None
12/07/2017 10:05, Trace Moisture , 34.5 , , , 39, 40, 17, 14, 20, W, None, None
12/07/2017 10:01, Trace Moisture , 34.2 , , , 38, 41, 17, 16, 20, W, None, None
12/07/2017 09:51, Trace Moisture , 33.8 , , , 37, 43, 17, 15, 19, W, None, None
12/07/2017 09:50, Trace Moisture , 33.4 , , , 37, 43, 17, 16, 19, W, None, None
12/07/2017 09:41, Ice Watch , 31.5 , , , 34, 46, 16, 14, 16, W, None, None
12/07/2017 09:35, Ice Watch , 30.6 , , , 33, 47, 16, 13, 16, W, None, None
12/07/2017 09:30, Ice Watch , 29.7 , , , 33, 48, 15, 12, 14, NW, None, None
12/07/2017 09:20, Ice Watch , 29.1 , , , 32, 49, 15, 14, 16, W, None, None
12/07/2017 09:20, Ice Watch , 28.9 , , , 32, 49, 15, 13, 16, W, None, None
12/07/2017 09:10, Ice Watch , 28.2 , , , 31, 50, 15, 13, 16, W, None, None
12/07/2017 09:05, Ice Watch , 27.3 , , , 30, 51, 14, 12, 14, W, None, None
12/07/2017 09:00, Ice Watch , 26.6 , , , 29, 51, 14, 10, 12, W, None, None
12/07/2017 08:50, Ice Watch , 25.7 , , , 28, 52, 13, 10, 12, NW, None, None
12/07/2017 08:50, Ice Watch , 25.7 , , , 28, 52, 13, 10, 12, NW, None, None
12/07/2017 08:40, Ice Watch , 25.2 , , , 28, 53, 13, 9, 12, W, None, None
12/07/2017 08:30, Ice Watch , 24.8 , , , 27, 53, 13, 9, 12, NW, None, None
12/07/2017 08:20, Ice Watch , 24.4 , , , 27, 53, 12, 10, 14, W, None, None
12/07/2017 08:20, Ice Watch , 24.4 , , , 27, 53, 12, 11, 14, W, None, None
12/07/2017 08:10, Ice Watch , 24.4 , , , 27, 53, 12, 12, 15, W, None, None
12/07/2017 08:05, Ice Watch , 24.3 , , , 27, 52, 12, 12, 16, NW, None, None
12/07/2017 08:00, Ice Watch , 24.3 , , , 27, 52, 12, 12, 16, W, None, None
12/07/2017 07:50, Ice Watch , 24.4 , , , 27, 52, 12, 13, 17, W, None, None
12/07/2017 07:50, Ice Watch , 24.4 , , , 27, 52, 12, 13, 17, W, None, None
12/07/2017 07:40, Ice Watch , 24.6 , , , 28, 51, 13, 14, 17, W, None, None
12/07/2017 07:35, Ice Watch , 24.6 , , , 28, 51, 13, 15, 18, W, None, None
12/07/2017 07:30, Ice Watch , 24.8 , , , 28, 51, 13, 16, 19, W, None, None
12/07/2017 07:20, Ice Watch , 24.8 , , , 28, 51, 13, 17, 21, W, None, None
12/07/2017 07:20, Ice Watch , 24.8 , , , 28, 51, 13, 17, 21, W, None, None
12/07/2017 07:10, Ice Watch , 24.6 , , , 28, 52, 13, 18, 21, W, None, None
12/07/2017 07:05, Ice Watch , 24.4 , , , 28, 52, 12, 17, 21, W, None, None
12/07/2017 07:00, Ice Watch , 24.4 , , , 27, 52, 12, 17, 20, W, None, None
12/07/2017 06:50, Ice Watch , 24.6 , , , 28, 51, 12, 16, 20, W, None, None
12/07/2017 06:40, Ice Watch , 24.4 , , , 27, 51, 12, 16, 18, W, None, None
12/07/2017 06:35, Ice Watch , 24.6 , , , 27, 51, 11, 16, 17, W, None, None
12/07/2017 06:30, Ice Watch , 24.6 , , , 27, 50, 11, 16, 17, W, None, None
12/07/2017 06:20, Ice Watch , 25 , , , 28, 48, 11, 15, 19, W, None, None
12/07/2017 06:19, Ice Watch , 25 , , , 28, 48, 11, 15, 19, W, None, None
12/07/2017 06:09, Ice Watch , 25.3 , , , 31, 45, 13, 12, 14, W, None, None
12/07/2017 05:59, Ice Watch , 25.9 , , , 35, 42, 15, 11, 19, NW, None, None
12/07/2017 05:50, Ice Watch , 25.7 , , , 35, 43, 15, 15, 17, NW, None, None
12/07/2017 05:49, Ice Watch , 25.5 , , , 35, 44, 15, 15, 17, NW, None, None
12/07/2017 05:39, Ice Watch , 25 , , , 33, 46, 15, 15, 19, NW, None, None
12/07/2017 05:35, Ice Watch , 24.6 , , , 32, 47, 14, 16, 19, NW, None, None
12/07/2017 05:29, Ice Watch , 24.4 , , , 31, 48, 14, 12, 19, NW, None, None
12/07/2017 05:20, Ice Watch , 24.1 , , , 29, 50, 13, 13, 16, NW, None, None
12/07/2017 05:19, Ice Watch , 24.1 , , , 29, 50, 13, 12, 15, NW, None, None
12/07/2017 05:09, Ice Watch , 23.9 , , , 26, 52, 11, 11, 12, NW, None, None
12/07/2017 05:05, Ice Watch , 23.9 , , , 26, 52, 11, 7, 11, NW, None, None
12/07/2017 04:59, Ice Watch , 24.1 , , , 27, 51, 11, 8, 11, NW, None, None
12/07/2017 04:50, Ice Watch , 24.4 , , , 28, 50, 12, 9, 13, NW, None, None
12/07/2017 04:49, Ice Watch , 24.3 , , , 28, 50, 12, 9, 13, NW, None, None
12/07/2017 04:39, Ice Watch , 24.3 , , , 28, 50, 12, 11, 14, NW, None, None
12/07/2017 04:35, Ice Watch , 24.3 , , , 28, 50, 12, 12, 15, NW, None, None
12/07/2017 04:29, Ice Watch , 24.4 , , , 27, 50, 11, 12, 15, NW, None, None
12/07/2017 04:20, Ice Watch , 24.6 , , , 28, 49, 12, 12, 14, NW, None, None
12/07/2017 04:19, Ice Watch , 24.8 , , , 28, 49, 12, 12, 16, NW, None, None
12/07/2017 04:09, Ice Watch , 24.8 , , , 29, 49, 12, 13, 17, W, None, None
12/07/2017 04:05, Ice Watch , 24.8 , , , 29, 49, 12, 14, 17, NW, None, None
12/07/2017 03:59, Ice Watch , 24.6 , , , 28, 50, 12, 14, 17, NW, None, None
12/07/2017 03:50, Ice Watch , 24.6 , , , 27, 50, 11, 10, 17, NW, None, None
12/07/2017 03:49, Ice Watch , 24.6 , , , 27, 50, 11, 11, 17, NW, None, None
12/07/2017 03:39, Ice Watch , 24.8 , , , 27, 50, 11, 14, 18, W, None, None
12/07/2017 03:35, Ice Watch , 24.8 , , , 27, 50, 11, 13, 16, W, None, None
12/07/2017 03:29, Ice Watch , 24.8 , , , 27, 49, 11, 13, 17, W, None, None
12/07/2017 03:20, Ice Watch , 25.2 , , , 28, 49, 11, 14, 21, W, None, None
12/07/2017 03:19, Ice Watch , 25.2 , , , 28, 49, 11, 17, 21, W, None, None
12/07/2017 03:09, Ice Watch , 25.2 , , , 28, 48, 11, 16, 21, W, None, None
12/07/2017 03:05, Ice Watch , 25.3 , , , 28, 48, 11, 16, 21, W, None, None
12/07/2017 02:58, Ice Watch , 25.5 , , , 29, 48, 12, 17, 20, W, None, None
12/07/2017 02:50, Ice Watch , 25.5 , , , 29, 48, 12, 17, 22, W, None, None
12/07/2017 02:48, Ice Watch , 25.7 , , , 29, 48, 12, 17, 22, W, None, None
12/07/2017 02:38, Ice Watch , 25.7 , , , 29, 48, 12, 18, 21, W, None, None
12/07/2017 02:35, Ice Watch , 25.5 , , , 29, 48, 12, 18, 20, W, None, None
12/07/2017 02:28, Ice Watch , 25.5 , , , 28, 48, 12, 17, 19, W, None, None
12/07/2017 02:20, Ice Watch , 25.3 , , , 28, 49, 11, 17, 19, W, None, None
12/07/2017 02:18, Ice Watch , 25.3 , , , 27, 49, 11, 17, 19, W, None, None
12/07/2017 02:08, Ice Watch , 25.3 , , , 28, 48, 11, 16, 19, W, None, None
12/07/2017 01:58, Ice Watch , 25.3 , , , 27, 48, 11, 16, 17, W, None, None
12/07/2017 01:50, Ice Watch , 25.5 , , , 28, 47, 11, 14, 17, W, None, None
12/07/2017 01:48, Ice Watch , 25.5 , , , 28, 47, 11, 14, 17, W, None, None
12/07/2017 01:38, Ice Watch , 25.7 , , , 29, 47, 11, 14, 17, W, None, None
12/07/2017 01:28, Ice Watch , 25.9 , , , 29, 47, 11, 15, 18, W, None, None
12/07/2017 01:20, Ice Watch , 25.9 , , , 29, 47, 12, 16, 19, NW, None, None
12/07/2017 01:18, Ice Watch , 25.9 , , , 29, 47, 12, 17, 19, NW, None, None
12/07/2017 01:08, Ice Watch , 25.7 , , , 29, 47, 12, 14, 17, NW, None, None
12/07/2017 01:05, Ice Watch , 25.7 , , , 29, 47, 12, 13, 17, NW, None, None
12/07/2017 00:58, Ice Watch , 25.7 , , , 29, 48, 12, 14, 17, W, None, None
12/07/2017 00:50, Ice Watch , 25.7 , , , 28, 48, 11, 14, 16, W, None, None
12/07/2017 00:48, Ice Watch , 25.7 , , , 28, 49, 11, 13, 16, W, None, None
12/07/2017 00:38, Ice Watch , 25.5 , , , 28, 49, 11, 12, 14, W, None, None
12/07/2017 00:35, Ice Watch , 25.5 , , , 28, 49, 11, 12, 14, W, None, None
12/07/2017 00:28, Ice Watch , 25.5 , , , 28, 49, 11, 12, 14, NW, None, None
12/07/2017 00:20, Ice Watch , 25.7 , , , 28, 49, 11, 11, 14, NW, None, None
12/07/2017 00:18, Ice Watch , 25.7 , , , 27, 49, 11, 10, 12, NW, None, None
12/07/2017 00:08, Ice Watch , 25.9 , , , 27, 49, 11, 11, 15, NW, None, None
12/07/2017 00:05, Ice Watch , 25.9 , , , 27, 50, 11, 11, 15, NW, None, None
12/06/2017 23:57, Ice Watch , 26.1 , , , 27, 50, 11, 12, 16, W, None, None
12/06/2017 23:50, Ice Watch , 26.1 , , , 27, 51, 11, 12, 14, W, None, None
12/06/2017 23:47, Ice Watch , 26.1 , , , 26, 51, 11, 11, 14, NW, None, None
12/06/2017 23:37, Ice Watch , 26.4 , , , 26, 50, 10, 6, 8, NW, None, None
12/06/2017 23:35, Ice Watch , 26.6 , , , 26, 50, 11, 6, 10, NW, None, None
12/06/2017 23:27, Ice Watch , 27.1 , , , 27, 49, 11, 9, 12, W, None, None
12/06/2017 23:20, Ice Watch , 27.7 , , , 28, 48, 11, 11, 14, W, None, None
12/06/2017 23:17, Ice Watch , 27.9 , , , 28, 48, 11, 11, 14, W, None, None
12/06/2017 23:07, Ice Watch , 28.4 , , , 29, 47, 12, 12, 15, W, None, None
12/06/2017 23:05, Ice Watch , 28.6 , , , 29, 46, 12, 12, 15, W, None, None
12/06/2017 22:57, Ice Watch , 29.1 , , , 30, 46, 12, 13, 16, W, None, None
12/06/2017 22:50, Ice Watch , 29.3 , , , 30, 46, 12, 13, 16, W, None, None
12/06/2017 22:47, Ice Watch , 29.5 , , , 30, 46, 12, 14, 16, W, None, None
12/06/2017 22:37, Ice Watch , 29.7 , , , 31, 45, 12, 12, 16, W, None, None
12/06/2017 22:35, Ice Watch , 29.7 , , , 31, 45, 12, 13, 16, W, None, None
12/06/2017 22:27, Ice Watch , 29.7 , , , 30, 45, 12, 12, 14, W, None, None
12/06/2017 22:20, Ice Watch , 29.7 , , , 30, 45, 12, 12, 13, W, None, None
12/06/2017 22:17, Ice Watch , 29.7 , , , 30, 45, 12, 11, 13, W, None, None
12/06/2017 22:07, Ice Watch , 29.7 , , , 31, 44, 12, 11, 12, W, None, None
12/06/2017 22:05, Ice Watch , 29.7 , , , 31, 44, 12, 11, 12, W, None, None
12/06/2017 21:57, Ice Watch , 29.7 , , , 31, 45, 13, 11, 14, W, None, None
12/06/2017 21:50, Ice Watch , 29.7 , , , 31, 45, 12, 11, 14, W, None, None
12/06/2017 21:47, Ice Watch , 29.7 , , , 31, 45, 12, 11, 13, W, None, None
12/06/2017 21:37, Ice Watch , 29.7 , , , 31, 45, 12, 11, 12, W, None, None
12/06/2017 21:35, Ice Watch , 29.7 , , , 31, 45, 12, 11, 12, W, None, None
12/06/2017 21:27, Ice Watch , 29.7 , , , 30, 45, 12, 10, 12, W, None, None
12/06/2017 21:20, Ice Watch , 29.7 , , , 31, 45, 12, 10, 11, W, None, None
12/06/2017 21:17, Ice Watch , 29.7 , , , 31, 45, 12, 10, 11, W, None, None
12/06/2017 21:07, Ice Watch , 29.8 , , , 31, 44, 12, 9, 11, W, None, None
12/06/2017 21:05, Ice Watch , 29.8 , , , 31, 44, 12, 9, 12, W, None, None
12/06/2017 20:57, Ice Watch , 30 , , , 31, 44, 12, 10, 12, W, None, None
12/06/2017 20:50, Ice Watch , 30 , , , 31, 43, 12, 10, 12, W, None, None
12/06/2017 20:47, Ice Watch , 30 , , , 31, 43, 12, 11, 12, W, None, None
12/06/2017 20:36, Ice Watch , 30.4 , , , 32, 43, 12, 11, 13, W, None, None
12/06/2017 20:35, Ice Watch , 30.4 , , , 32, 43, 12, 11, 13, W, None, None
12/06/2017 20:26, Ice Watch , 30.2 , , , 32, 43, 12, 11, 12, W, None, None
12/06/2017 20:20, Ice Watch , 30.6 , , , 33, 43, 13, 11, 13, W, None, None
12/06/2017 20:16, Ice Watch , 30.6 , , , 33, 43, 13, 10, 13, W, None, None
12/06/2017 20:06, Ice Watch , 30.6 , , , 32, 43, 13, 12, 14, W, None, None
12/06/2017 20:05, Ice Watch , 30.6 , , , 32, 43, 13, 12, 14, W, None, None
12/06/2017 19:56, Ice Watch , 30.4 , , , 32, 43, 13, 11, 12, W, None, None
12/06/2017 19:50, Ice Watch , 30.6 , , , 32, 43, 13, 9, 11, W, None, None
12/06/2017 19:46, Ice Watch , 30.6 , , , 32, 43, 13, 9, 11, W, None, None
12/06/2017 19:36, Ice Watch , 30.6 , , , 32, 43, 12, 9, 11, W, None, None
12/06/2017 19:35, Ice Watch , 30.6 , , , 32, 43, 12, 9, 11, W, None, None
12/06/2017 19:26, Ice Watch , 30.6 , , , 32, 43, 12, 9, 11, W, None, None
12/06/2017 19:20, Ice Watch , 30.6 , , , 32, 43, 12, 9, 11, W, None, None
12/06/2017 19:16, Ice Watch , 30.6 , , , 32, 43, 12, 9, 11, W, None, None
12/06/2017 19:06, Ice Watch , 30.6 , , , 32, 43, 12, 9, 11, W, None, None
12/06/2017 19:05, Ice Watch , 30.6 , , , 32, 43, 12, 9, 11, W, None, None
12/06/2017 18:56, Ice Watch , 30.6 , , , 32, 43, 12, 9, 11, W, None, None
12/06/2017 18:50, Ice Watch , 30.6 , , , 32, 43, 12, 9, 11, W, None, None
12/06/2017 18:46, Ice Watch , 30.6 , , , 32, 43, 12, 10, 12, W, None, None
Change End Date:

Copyright © 1998-2015 Vaisala, Inc.
All Rights Reserved
Send comments about the data to:
SCAN Web ® is a registered trademark of Vaisala, Inc.
SCAN Web Version 6.0